createdAt,value
2022-11-26T00:01:24.159Z,5.70
2022-11-26T00:03:54.393Z,5.80
2022-11-26T00:06:46.858Z,5.80
2022-11-26T00:09:19.248Z,5.90
2022-11-26T00:11:47.167Z,5.90
2022-11-26T00:14:16.478Z,5.90
2022-11-26T00:16:45.587Z,5.90
2022-11-26T00:19:13.496Z,5.90
2022-11-26T00:21:43.361Z,5.90
2022-11-26T00:24:27.116Z,5.90
2022-11-26T00:26:58.661Z,5.80
2022-11-26T00:29:26.940Z,5.80
2022-11-26T00:31:55.001Z,5.90
2022-11-26T00:34:23.112Z,5.80
2022-11-26T00:36:51.148Z,5.80
2022-11-26T00:39:24.453Z,5.90
2022-11-26T00:41:53.520Z,5.80
2022-11-26T00:44:24.349Z,5.80
2022-11-26T00:46:53.092Z,5.80
2022-11-26T00:49:22.062Z,5.80
2022-11-26T00:51:50.068Z,5.80
2022-11-26T00:54:20.428Z,5.80
2022-11-26T00:56:51.990Z,5.80
2022-11-26T00:59:24.602Z,5.90
2022-11-26T01:01:52.562Z,5.90
2022-11-26T01:04:23.364Z,5.90
2022-11-26T01:06:51.306Z,6.00
2022-11-26T01:09:22.180Z,6.00
2022-11-26T01:11:53.959Z,5.90
2022-11-26T01:14:23.494Z,5.90
2022-11-26T01:16:52.438Z,5.90
2022-11-26T01:19:20.331Z,5.90
2022-11-26T01:21:48.180Z,5.90
2022-11-26T01:24:16.091Z,5.90
2022-11-26T01:26:45.566Z,6.00
2022-11-26T01:29:20.669Z,6.00
2022-11-26T01:31:49.228Z,6.00
2022-11-26T01:34:17.252Z,6.00
2022-11-26T01:36:45.600Z,6.00
2022-11-26T01:39:20.080Z,6.00
2022-11-26T01:41:55.360Z,6.00
2022-11-26T01:44:27.145Z,6.00
2022-11-26T01:46:55.948Z,6.00
2022-11-26T01:49:25.246Z,6.00
2022-11-26T01:52:22.445Z,5.90
2022-11-26T01:54:51.641Z,5.90
2022-11-26T01:57:30.684Z,5.90
2022-11-26T02:00:02.538Z,5.90
2022-11-26T02:02:40.445Z,5.90
2022-11-26T02:05:27.814Z,6.00
2022-11-26T02:07:56.833Z,5.90
2022-11-26T02:10:28.248Z,6.00
2022-11-26T02:12:57.929Z,6.00
2022-11-26T02:15:30.408Z,6.00
2022-11-26T02:18:08.463Z,6.00
2022-11-26T02:21:19.628Z,6.00
2022-11-26T02:24:24.865Z,6.00
2022-11-26T02:27:35.043Z,6.00
2022-11-26T02:30:09.303Z,6.00
2022-11-26T02:33:00.354Z,5.90
2022-11-26T02:35:41.590Z,5.90
2022-11-26T02:38:14.466Z,5.90
2022-11-26T02:40:42.406Z,5.90
2022-11-26T02:43:10.432Z,5.90
2022-11-26T02:45:46.565Z,5.90
2022-11-26T02:48:32.287Z,6.00
2022-11-26T02:51:04.829Z,6.00
2022-11-26T02:53:35.758Z,6.10
2022-11-26T02:56:08.803Z,6.10
2022-11-26T02:58:37.883Z,6.10
2022-11-26T03:01:13.192Z,6.10
2022-11-26T03:03:48.001Z,6.20
2022-11-26T03:06:18.048Z,6.20
2022-11-26T03:08:46.704Z,6.20
2022-11-26T03:11:14.785Z,6.20
2022-11-26T03:13:42.670Z,6.30
2022-11-26T03:16:10.660Z,6.30
2022-11-26T03:18:38.603Z,6.30
2022-11-26T03:21:06.517Z,6.30
2022-11-26T03:23:34.526Z,6.20
2022-11-26T03:26:02.597Z,6.20
2022-11-26T03:28:30.476Z,6.10
2022-11-26T03:30:58.354Z,6.10
2022-11-26T03:33:26.280Z,6.10
2022-11-26T03:35:54.193Z,6.10
2022-11-26T03:38:22.100Z,6.00
2022-11-26T03:41:01.139Z,6.00
2022-11-26T03:43:33.315Z,5.90
2022-11-26T03:46:03.630Z,5.80
2022-11-26T03:48:31.640Z,5.70
2022-11-26T03:50:59.492Z,5.80
2022-11-26T03:53:27.389Z,5.70
2022-11-26T03:55:55.297Z,5.70
2022-11-26T03:58:23.277Z,5.70
2022-11-26T04:00:51.202Z,5.80
2022-11-26T04:03:19.223Z,5.80
2022-11-26T04:05:47.128Z,5.80
2022-11-26T04:08:15.181Z,5.70
2022-11-26T04:10:43.034Z,5.70
2022-11-26T04:13:10.900Z,5.70
2022-11-26T04:15:38.760Z,5.70
2022-11-26T04:18:06.698Z,5.70
2022-11-26T04:20:34.656Z,5.70
2022-11-26T04:23:02.595Z,5.70
2022-11-26T04:25:30.509Z,5.70
2022-11-26T04:27:58.588Z,5.70
2022-11-26T04:30:27.528Z,5.80
2022-11-26T04:32:56.788Z,5.80
2022-11-26T04:35:24.757Z,5.90
2022-11-26T04:37:52.730Z,6.00
2022-11-26T04:40:20.623Z,6.00
2022-11-26T04:42:48.521Z,6.10
2022-11-26T04:45:16.481Z,6.10
2022-11-26T04:47:44.368Z,6.10
2022-11-26T04:50:13.129Z,6.20
2022-11-26T04:52:41.029Z,6.20
2022-11-26T04:55:09.249Z,6.30
2022-11-26T04:57:37.135Z,6.30
2022-11-26T05:00:07.048Z,6.30
2022-11-26T05:02:35.057Z,6.40
2022-11-26T05:05:03.138Z,6.40
2022-11-26T05:07:31.088Z,6.40
2022-11-26T05:09:59.060Z,6.40
2022-11-26T05:12:26.998Z,6.40
2022-11-26T05:14:55.012Z,6.40
2022-11-26T05:17:22.875Z,6.40
2022-11-26T05:19:50.804Z,6.40
2022-11-26T05:22:18.728Z,6.40
2022-11-26T05:24:46.730Z,6.40
2022-11-26T05:27:14.669Z,6.40
2022-11-26T05:29:42.545Z,6.40
2022-11-26T05:32:10.513Z,6.40
2022-11-26T05:34:38.838Z,6.40
2022-11-26T05:37:07.576Z,6.40
2022-11-26T05:39:35.862Z,6.30
2022-11-26T05:42:08.947Z,6.30
2022-11-26T05:44:38.238Z,6.30
2022-11-26T05:47:07.163Z,6.30
2022-11-26T05:49:35.124Z,6.30
2022-11-26T05:52:03.259Z,6.40
2022-11-26T05:54:31.158Z,6.40
2022-11-26T05:57:03.272Z,6.40
2022-11-26T05:59:34.516Z,6.40
2022-11-26T06:02:05.908Z,6.40
2022-11-26T06:04:37.195Z,6.40
2022-11-26T06:07:05.646Z,6.40
2022-11-26T06:09:34.481Z,6.40
2022-11-26T06:12:03.040Z,6.40
2022-11-26T06:14:33.681Z,6.40
2022-11-26T06:17:01.645Z,6.40
2022-11-26T06:19:29.564Z,6.40
2022-11-26T06:21:57.563Z,6.40
2022-11-26T06:24:25.405Z,6.50
2022-11-26T06:26:53.501Z,6.50
2022-11-26T06:29:27.544Z,6.50
2022-11-26T06:31:56.953Z,6.50
2022-11-26T06:34:25.256Z,6.50
2022-11-26T06:36:53.308Z,6.50
2022-11-26T06:39:21.203Z,6.50
2022-11-26T06:41:49.089Z,6.50
2022-11-26T06:44:17.036Z,6.50
2022-11-26T06:46:45.015Z,6.40
2022-11-26T06:49:12.984Z,6.40
2022-11-26T06:51:41.618Z,6.40
2022-11-26T06:54:09.554Z,6.40
2022-11-26T06:56:38.004Z,6.40
2022-11-26T06:59:06.532Z,6.40
2022-11-26T07:01:34.583Z,6.50
2022-11-26T07:04:02.811Z,6.40
2022-11-26T07:06:33.109Z,6.40
2022-11-26T07:09:05.660Z,6.40
2022-11-26T07:11:34.589Z,6.30
2022-11-26T07:14:02.992Z,6.30
2022-11-26T07:16:31.405Z,6.30
2022-11-26T07:19:02.884Z,6.30
2022-11-26T07:21:31.806Z,6.30
2022-11-26T07:24:03.875Z,6.30
2022-11-26T07:26:35.347Z,6.20
2022-11-26T07:29:03.388Z,6.20
2022-11-26T07:31:31.356Z,6.10
2022-11-26T07:33:59.377Z,6.00
2022-11-26T07:36:29.386Z,6.00
2022-11-26T07:39:02.700Z,6.00
2022-11-26T07:41:31.358Z,5.90
2022-11-26T07:43:59.401Z,6.00
2022-11-26T07:46:27.812Z,6.20
2022-11-26T07:48:56.801Z,6.60
2022-11-26T07:51:27.314Z,7.10
2022-11-26T07:53:56.577Z,7.70
2022-11-26T07:56:25.485Z,7.90
2022-11-26T07:58:53.476Z,7.70
2022-11-26T08:01:24.169Z,7.30
2022-11-26T08:03:53.176Z,7.30
2022-11-26T08:06:23.596Z,7.10
2022-11-26T08:08:53.096Z,7.00
2022-11-26T08:11:26.616Z,6.90
2022-11-26T08:13:59.852Z,6.90
2022-11-26T08:16:29.219Z,6.90
2022-11-26T08:18:59.650Z,7.00
2022-11-26T08:21:28.336Z,7.00
2022-11-26T08:23:59.009Z,7.10
2022-11-26T08:26:36.173Z,7.10
2022-11-26T08:29:05.514Z,7.00
2022-11-26T08:31:34.081Z,6.90
2022-11-26T08:34:02.949Z,7.00
2022-11-26T08:36:32.070Z,7.00
2022-11-26T08:39:01.300Z,6.90
2022-11-26T08:41:29.586Z,7.00
2022-11-26T08:44:06.742Z,7.00
2022-11-26T08:46:35.992Z,7.00
2022-11-26T08:49:04.154Z,7.10
2022-11-26T08:51:32.685Z,7.20
2022-11-26T08:54:00.659Z,7.20
2022-11-26T08:56:28.942Z,7.20
2022-11-26T08:58:57.068Z,7.20
2022-11-26T09:01:28.050Z,7.20
2022-11-26T09:03:59.464Z,7.20
2022-11-26T09:06:30.872Z,7.20
2022-11-26T09:09:14.116Z,7.20
2022-11-26T09:11:47.444Z,7.20
2022-11-26T09:14:21.564Z,7.20
2022-11-26T09:16:51.422Z,7.20
2022-11-26T09:19:19.819Z,7.30
2022-11-26T09:21:48.494Z,7.30
2022-11-26T09:24:19.935Z,7.30
2022-11-26T09:26:49.369Z,7.40
2022-11-26T09:29:23.037Z,7.30
2022-11-26T09:34:40.429Z,7.30
2022-11-26T09:37:08.704Z,7.30
2022-11-26T09:39:36.620Z,7.30
2022-11-26T09:42:28.011Z,7.30
2022-11-26T09:45:02.622Z,7.30
2022-11-26T09:47:49.382Z,7.30
2022-11-26T09:50:17.440Z,7.40
2022-11-26T09:52:48.508Z,7.30
2022-11-26T09:55:22.963Z,7.30
2022-11-26T09:58:26.885Z,7.30
2022-11-26T10:00:59.789Z,7.30
2022-11-26T10:03:35.715Z,7.30
2022-11-26T10:06:19.497Z,7.30
2022-11-26T10:09:22.440Z,7.30
2022-11-26T10:11:56.780Z,7.30
2022-11-26T10:14:52.850Z,7.30
2022-11-26T10:17:30.110Z,7.40
2022-11-26T10:20:32.200Z,7.40
2022-11-26T10:23:15.343Z,7.40
2022-11-26T10:25:59.529Z,7.40
2022-11-26T10:28:59.870Z,7.40
2022-11-26T10:31:34.516Z,7.40
2022-11-26T10:34:10.049Z,7.40
2022-11-26T10:36:43.345Z,7.40
2022-11-26T10:39:16.792Z,7.40
2022-11-26T10:41:45.152Z,7.40
2022-11-26T10:44:31.879Z,7.40
2022-11-26T10:47:01.379Z,7.40
2022-11-26T10:49:31.284Z,7.40
2022-11-26T10:52:02.616Z,7.50
2022-11-26T10:54:38.077Z,7.50
2022-11-26T10:57:20.374Z,7.50
2022-11-26T10:59:50.494Z,7.50
2022-11-26T11:02:21.458Z,7.40
2022-11-26T11:04:51.916Z,7.40
2022-11-26T11:07:55.017Z,7.40
2022-11-26T11:10:25.445Z,7.40
2022-11-26T11:13:13.813Z,7.30
2022-11-26T11:15:42.898Z,7.30
2022-11-26T11:18:16.888Z,7.40
2022-11-26T11:20:53.810Z,7.40
2022-11-26T11:23:52.342Z,7.40
2022-11-26T11:26:24.676Z,7.40
2022-11-26T11:28:55.833Z,7.40
2022-11-26T11:31:31.318Z,7.50
2022-11-26T11:34:31.960Z,7.50
2022-11-26T11:37:24.224Z,7.50
2022-11-26T11:40:17.168Z,7.50
2022-11-26T11:42:51.861Z,7.50
2022-11-26T11:45:53.117Z,7.50
2022-11-26T11:48:37.311Z,7.50
2022-11-26T11:51:27.200Z,7.50
2022-11-26T11:54:07.307Z,7.50
2022-11-26T11:56:53.741Z,7.50
2022-11-26T11:59:37.243Z,7.50
2022-11-26T12:02:38.220Z,7.50
2022-11-26T12:05:31.237Z,7.50
2022-11-26T12:08:16.205Z,7.50
2022-11-26T12:10:52.501Z,7.50
2022-11-26T12:13:23.606Z,7.40
2022-11-26T12:16:02.281Z,7.40
2022-11-26T12:18:52.782Z,7.30
2022-11-26T12:21:58.062Z,7.40
2022-11-26T12:24:56.687Z,7.40
2022-11-26T12:27:56.402Z,7.40
2022-11-26T12:30:31.615Z,7.50
2022-11-26T12:33:15.570Z,7.50
2022-11-26T12:35:53.067Z,7.50
2022-11-26T12:38:33.006Z,7.50
2022-11-26T12:41:07.187Z,7.50
2022-11-26T12:44:17.488Z,7.60
2022-11-26T12:47:08.487Z,7.50
2022-11-26T12:49:46.953Z,7.50
2022-11-26T12:52:14.933Z,7.50
2022-11-26T12:58:18.377Z,7.60
2022-11-26T13:00:47.334Z,7.60
2022-11-26T13:03:29.053Z,7.60
2022-11-26T13:06:15.853Z,7.70
2022-11-26T13:09:05.600Z,7.80
2022-11-26T13:12:06.361Z,7.90
2022-11-26T13:14:40.679Z,7.90
2022-11-26T13:17:18.106Z,7.90
2022-11-26T13:19:54.098Z,7.90
2022-11-26T13:23:02.852Z,7.80
2022-11-26T13:26:07.257Z,7.80
2022-11-26T13:28:50.182Z,7.80
2022-11-26T13:31:55.607Z,7.80
2022-11-26T13:34:59.605Z,7.80
2022-11-26T13:38:01.697Z,7.70
2022-11-26T13:40:47.684Z,7.70
2022-11-26T13:43:21.134Z,7.70
2022-11-26T13:46:00.328Z,7.70
2022-11-26T13:48:39.951Z,7.60
2022-11-26T13:51:12.861Z,7.60
2022-11-26T13:54:33.402Z,7.60
2022-11-26T13:57:12.549Z,7.60
2022-11-26T13:59:52.927Z,7.60
2022-11-26T14:02:36.791Z,7.60
2022-11-26T14:05:12.429Z,7.60
2022-11-26T14:07:40.994Z,7.70
2022-11-26T14:10:34.088Z,7.70
2022-11-26T14:13:04.805Z,7.70
2022-11-26T14:15:44.762Z,7.60
2022-11-26T14:18:17.933Z,7.60
2022-11-26T14:21:07.455Z,7.70
2022-11-26T14:23:48.613Z,7.70
2022-11-26T14:26:23.296Z,7.70
2022-11-26T14:28:53.477Z,7.70
2022-11-26T14:31:30.169Z,7.70
2022-11-26T14:34:04.552Z,7.60
2022-11-26T14:36:32.597Z,7.60
2022-11-26T14:39:14.607Z,7.60
2022-11-26T14:41:42.560Z,7.60
2022-11-26T14:44:14.351Z,7.60
2022-11-26T14:46:44.303Z,7.60
2022-11-26T14:49:38.830Z,7.60
2022-11-26T14:52:35.204Z,7.60
2022-11-26T14:55:25.004Z,7.60
2022-11-26T14:57:57.243Z,7.60
2022-11-26T15:00:27.529Z,7.60
2022-11-26T15:02:56.255Z,7.50
2022-11-26T15:05:26.385Z,7.50
2022-11-26T15:08:04.869Z,7.50
2022-11-26T15:11:02.640Z,7.40
2022-11-26T15:13:46.956Z,7.40
2022-11-26T15:16:31.157Z,7.40
2022-11-26T15:19:00.135Z,7.30
2022-11-26T15:21:29.369Z,7.30
2022-11-26T15:24:03.509Z,7.20
2022-11-26T15:26:35.869Z,7.20
2022-11-26T15:29:34.457Z,7.30
2022-11-26T15:32:02.960Z,7.20
2022-11-26T15:34:33.416Z,7.10
2022-11-26T15:37:01.328Z,7.10
2022-11-26T15:39:32.395Z,7.10
2022-11-26T15:42:29.881Z,7.00
2022-11-26T15:45:01.875Z,7.00
2022-11-26T15:47:35.050Z,7.00
2022-11-26T15:50:03.219Z,7.00
2022-11-26T15:52:34.036Z,7.00
2022-11-26T15:55:15.652Z,7.00
2022-11-26T15:57:44.668Z,7.00
2022-11-26T16:00:26.267Z,6.80
2022-11-26T16:02:54.347Z,6.70
2022-11-26T16:05:29.763Z,6.80
2022-11-26T16:08:00.064Z,6.80
2022-11-26T16:10:32.538Z,6.80
2022-11-26T16:13:16.992Z,6.80
2022-11-26T16:15:52.831Z,6.80
2022-11-26T16:18:23.966Z,6.70
2022-11-26T16:21:01.492Z,6.70
2022-11-26T16:23:31.022Z,6.70
2022-11-26T16:26:20.420Z,6.70
2022-11-26T16:28:49.069Z,6.70
2022-11-26T16:31:18.499Z,6.70
2022-11-26T16:33:46.828Z,6.70
2022-11-26T16:36:34.186Z,6.70
2022-11-26T16:39:02.688Z,6.70
2022-11-26T16:41:30.553Z,6.70
2022-11-26T16:43:58.775Z,6.70
2022-11-26T16:46:28.747Z,6.70
2022-11-26T16:48:56.783Z,6.70
2022-11-26T16:51:24.820Z,6.80
2022-11-26T16:53:52.780Z,6.80
2022-11-26T16:56:20.819Z,6.80
2022-11-26T16:58:48.929Z,6.80
2022-11-26T17:01:16.967Z,6.80
2022-11-26T17:03:45.604Z,6.80
2022-11-26T17:06:24.412Z,6.80
2022-11-26T17:08:54.326Z,6.80
2022-11-26T17:11:22.308Z,6.80
2022-11-26T17:13:50.146Z,6.70
2022-11-26T17:16:20.463Z,6.70
2022-11-26T17:18:49.080Z,6.60
2022-11-26T17:21:17.193Z,6.60
2022-11-26T17:23:45.095Z,6.50
2022-11-26T17:26:25.081Z,6.50
2022-11-26T17:28:53.021Z,6.50
2022-11-26T17:31:20.927Z,6.50
2022-11-26T17:33:48.849Z,6.40
2022-11-26T17:36:20.250Z,6.40
2022-11-26T17:38:48.294Z,6.40
2022-11-26T17:41:16.854Z,6.40
2022-11-26T17:43:45.069Z,6.40
2022-11-26T17:46:38.937Z,6.40
2022-11-26T17:49:16.284Z,6.50
2022-11-26T17:51:44.213Z,6.50
2022-11-26T17:54:12.077Z,6.50
2022-11-26T17:56:39.983Z,6.50
2022-11-26T17:59:07.853Z,6.50
2022-11-26T18:01:35.797Z,6.50
2022-11-26T18:04:03.753Z,6.50
2022-11-26T18:09:42.961Z,6.50
2022-11-26T18:12:25.426Z,6.50
2022-11-26T18:14:57.920Z,6.50
2022-11-26T18:17:26.269Z,6.50
2022-11-26T18:19:54.212Z,6.50
2022-11-26T18:22:25.246Z,6.50
2022-11-26T18:24:57.480Z,6.50
2022-11-26T18:27:31.627Z,6.40
2022-11-26T18:29:59.656Z,6.40
2022-11-26T18:32:27.627Z,6.40
2022-11-26T18:34:55.630Z,6.40
2022-11-26T18:37:23.589Z,6.50
2022-11-26T18:39:51.527Z,6.50
2022-11-26T18:42:36.435Z,6.50
2022-11-26T18:45:26.576Z,6.50
2022-11-26T18:47:54.487Z,6.50
2022-11-26T18:50:22.493Z,6.50
2022-11-26T18:52:50.389Z,6.50
2022-11-26T18:55:18.509Z,6.40
2022-11-26T18:57:46.394Z,6.40
2022-11-26T19:00:15.537Z,6.40
2022-11-26T19:02:43.534Z,6.40
2022-11-26T19:05:11.453Z,6.50
2022-11-26T19:07:39.540Z,6.50
2022-11-26T19:10:08.342Z,6.50
2022-11-26T19:12:36.332Z,6.50
2022-11-26T19:15:04.676Z,6.40
2022-11-26T19:17:32.577Z,6.40
2022-11-26T19:20:00.463Z,6.30
2022-11-26T19:22:28.603Z,6.20
2022-11-26T19:24:56.512Z,6.30
2022-11-26T19:27:24.474Z,6.20
2022-11-26T19:29:52.346Z,6.20
2022-11-26T19:32:20.259Z,6.20
2022-11-26T19:34:48.116Z,6.10
2022-11-26T19:37:15.993Z,6.00
2022-11-26T19:39:43.947Z,6.00
2022-11-26T19:42:11.943Z,6.00
2022-11-26T19:44:39.884Z,6.00
2022-11-26T19:47:07.768Z,5.90
2022-11-26T19:49:35.974Z,5.80
2022-11-26T19:52:03.960Z,5.70
2022-11-26T19:54:31.845Z,5.60
2022-11-26T19:56:59.812Z,5.50
2022-11-26T19:59:27.721Z,5.50
2022-11-26T20:01:56.811Z,5.50
2022-11-26T20:04:28.494Z,5.40
2022-11-26T20:06:56.595Z,5.30
2022-11-26T20:09:24.446Z,5.30
2022-11-26T20:11:52.364Z,5.20
2022-11-26T20:14:20.444Z,5.20
2022-11-26T20:16:48.468Z,5.20
2022-11-26T20:19:16.529Z,5.10
2022-11-26T20:21:44.537Z,5.10
2022-11-26T20:24:15.858Z,5.10
2022-11-26T20:26:47.213Z,5.00
2022-11-26T20:29:15.735Z,4.80
2022-11-26T20:31:47.718Z,4.70
2022-11-26T20:34:21.022Z,4.60
2022-11-26T20:36:49.409Z,4.60
2022-11-26T20:39:22.737Z,4.50
2022-11-26T20:41:50.994Z,4.50
2022-11-26T20:44:19.298Z,4.50
2022-11-26T20:46:47.197Z,4.50
2022-11-26T20:49:17.024Z,4.40
2022-11-26T20:51:44.991Z,4.30
2022-11-26T20:54:12.958Z,4.30
2022-11-26T20:56:41.037Z,4.20
2022-11-26T20:59:09.974Z,4.20
2022-11-26T21:01:38.033Z,4.20
2022-11-26T21:04:06.085Z,4.00
2022-11-26T21:06:36.164Z,3.80
2022-11-26T21:09:07.336Z,3.60
2022-11-26T21:11:36.044Z,3.60
2022-11-26T21:14:04.900Z,3.60
2022-11-26T21:16:33.729Z,3.60
2022-11-26T21:19:02.088Z,3.50
2022-11-26T21:21:30.459Z,3.40
2022-11-26T21:23:59.051Z,3.40
2022-11-26T21:26:28.022Z,3.40
2022-11-26T21:28:58.633Z,3.50
2022-11-26T21:31:28.151Z,3.40
2022-11-26T21:33:59.103Z,3.30
2022-11-26T21:36:27.716Z,3.20
2022-11-26T21:38:56.053Z,3.20
2022-11-26T21:41:25.055Z,3.20
2022-11-26T21:43:53.225Z,3.10
2022-11-26T21:46:25.571Z,3.00
2022-11-26T21:48:58.774Z,3.00
2022-11-26T21:51:29.267Z,3.00
2022-11-26T21:53:58.613Z,2.80
2022-11-26T21:56:29.034Z,2.70
2022-11-26T21:58:59.609Z,2.70
2022-11-26T22:01:30.084Z,2.70
2022-11-26T22:04:01.441Z,2.60
2022-11-26T22:06:29.966Z,2.50
2022-11-26T22:08:58.022Z,2.50
2022-11-26T22:11:29.370Z,2.60
2022-11-26T22:13:57.235Z,2.50
2022-11-26T22:16:27.897Z,2.50
2022-11-26T22:18:57.383Z,2.40
2022-11-26T22:21:26.845Z,2.40
2022-11-26T22:23:55.033Z,2.40
2022-11-26T22:26:23.183Z,2.50
2022-11-26T22:28:52.072Z,2.50
2022-11-26T22:31:22.591Z,2.60
2022-11-26T22:33:51.531Z,2.60
2022-11-26T22:36:19.442Z,2.50
2022-11-26T22:38:47.386Z,2.30
2022-11-26T22:41:15.987Z,2.30
2022-11-26T22:43:44.384Z,2.40
2022-11-26T22:46:20.543Z,2.40
2022-11-26T22:48:57.762Z,2.30
2022-11-26T22:51:31.177Z,2.10
2022-11-26T22:54:01.491Z,2.10
2022-11-26T22:56:30.224Z,2.10
2022-11-26T22:58:58.772Z,2.20
2022-11-26T23:01:29.967Z,2.20
2022-11-26T23:03:59.772Z,2.30
2022-11-26T23:06:29.915Z,2.40
2022-11-26T23:08:59.086Z,2.30
2022-11-26T23:11:39.992Z,2.30
2022-11-26T23:14:10.409Z,2.20
2022-11-26T23:16:40.374Z,2.20
2022-11-26T23:19:08.723Z,2.20
2022-11-26T23:21:40.838Z,2.10
2022-11-26T23:24:09.202Z,2.10
2022-11-26T23:26:39.121Z,2.20
2022-11-26T23:29:08.005Z,2.30
2022-11-26T23:31:39.666Z,2.20
2022-11-26T23:34:08.904Z,2.10
2022-11-26T23:36:40.820Z,2.20
2022-11-26T23:39:12.427Z,2.30
2022-11-26T23:41:40.420Z,2.30
2022-11-26T23:44:08.400Z,2.40
2022-11-26T23:46:36.548Z,2.30
2022-11-26T23:49:05.204Z,2.30
2022-11-26T23:51:34.287Z,2.30
2022-11-26T23:54:02.398Z,2.30
2022-11-26T23:56:33.429Z,2.20
2022-11-26T23:59:03.747Z,2.30
